Time;durP1;ratioP1;P1;durP2;ratioP2;P2;SDS_P1;SDS_P2;PMS_P1;PMS_P2;Temp;Humidity;BMP_temperature;BMP_pressure;BME280_temperature;BME280_humidity;BME280_pressure;Samples;Min_cycle;Max_cycle;Signal;HPM_P1;HPM_P2
2023/08/26 00:01:32;;;;;;;17.05;13.18;;;665.80;2432.00;;;;;;5055320;28;20032;-70
2023/08/26 00:03:58;;;;;;;17.48;12.93;;;665.70;2432.00;;;;;;5055095;28;20389;-71
2023/08/26 00:06:24;;;;;;;18.05;13.45;;;665.70;2432.00;;;;;;5055148;28;20465;-70
2023/08/26 00:08:52;;;;;;;16.77;13.10;;;665.70;2432.00;;;;;;5055348;28;20091;-71
2023/08/26 00:11:17;;;;;;;17.92;11.98;;;640.90;2432.00;;;;;;5055359;28;20025;-71
2023/08/26 00:13:43;;;;;;;24.40;12.98;;;665.70;2432.00;;;;;;5055078;28;20355;-73
2023/08/26 00:16:09;;;;;;;17.05;13.30;;;640.80;2432.00;;;;;;5054999;28;20025;-73
2023/08/26 00:18:34;;;;;;;16.13;12.70;;;640.60;2432.00;;;;;;5054544;28;20037;-71
2023/08/26 00:21:00;;;;;;;20.23;13.15;;;640.40;2432.00;;;;;;5054875;28;20028;-71
2023/08/26 00:23:26;;;;;;;20.05;13.15;;;640.30;2432.00;;;;;;5054621;28;20508;-70
2023/08/26 00:25:52;;;;;;;16.85;13.18;;;640.20;2432.00;;;;;;5054645;28;20028;-72
2023/08/26 00:28:18;;;;;;;15.68;12.30;;;640.20;2432.00;;;;;;5054958;28;20028;-70
2023/08/26 00:30:44;;;;;;;18.67;13.13;;;640.00;2432.00;;;;;;5054729;28;20021;-75
2023/08/26 00:33:09;;;;;;;19.73;12.65;;;640.00;2432.00;;;;;;5053417;28;20033;-69
2023/08/26 00:35:38;;;;;;;18.27;13.27;;;615.30;2432.00;;;;;;5054553;28;20025;-70
2023/08/26 00:38:04;;;;;;;21.65;13.15;;;615.20;2432.00;;;;;;5054420;28;20056;-70
2023/08/26 00:40:35;;;;;;;17.63;14.00;;;615.10;2432.00;;;;;;5054768;28;20041;-70
2023/08/26 00:43:09;;;;;;;19.23;13.90;;;614.90;2432.00;;;;;;5054328;28;20497;-70
2023/08/26 00:45:53;;;;;;;25.08;14.13;;;615.00;2432.00;;;;;;5054390;28;20397;-70
2023/08/26 00:48:20;;;;;;;18.52;14.57;;;615.00;2432.00;;;;;;5054210;28;20037;-71
2023/08/26 00:50:48;;;;;;;17.42;12.38;;;615.00;2432.00;;;;;;5054239;28;20044;-75
2023/08/26 00:53:16;;;;;;;18.20;14.23;;;615.00;2432.00;;;;;;5054396;28;20025;-70
2023/08/26 00:55:43;;;;;;;19.02;13.80;;;615.00;2432.00;;;;;;5054248;28;20123;-75
2023/08/26 00:58:10;;;;;;;16.70;13.70;;;615.10;2432.00;;;;;;5054254;28;20029;-74
2023/08/26 01:00:36;;;;;;;18.58;13.15;;;615.00;2432.00;;;;;;5054184;28;20024;-71
2023/08/26 01:03:08;;;;;;;24.77;13.15;;;615.10;2432.00;;;;;;5053960;28;20036;-70
2023/08/26 01:05:34;;;;;;;16.77;13.13;;;615.10;2432.00;;;;;;5053881;28;20028;-72
2023/08/26 01:08:01;;;;;;;18.35;13.93;;;615.20;2432.00;;;;;;5054228;28;20029;-73
2023/08/26 01:10:47;;;;;;;18.05;12.77;;;615.20;2432.00;;;;;;5053979;28;20060;-73
2023/08/26 01:13:14;;;;;;;15.80;12.80;;;615.30;2432.00;;;;;;4992534;28;20034;-76
2023/08/26 01:15:44;;;;;;;17.27;12.48;;;615.30;2432.00;;;;;;4992335;28;20031;-72
2023/08/26 01:18:13;;;;;;;25.40;14.10;;;640.00;2432.00;;;;;;4992024;28;20041;-72
2023/08/26 01:20:41;;;;;;;16.08;12.68;;;615.30;2432.00;;;;;;4992458;28;20030;-70
2023/08/26 01:23:15;;;;;;;19.10;12.75;;;615.30;2432.00;;;;;;4992219;28;20060;-71
2023/08/26 01:25:41;;;;;;;20.17;13.82;;;615.20;2432.00;;;;;;4992040;28;20124;-74
2023/08/26 01:28:06;;;;;;;18.95;12.73;;;615.00;2432.00;;;;;;4992228;28;20058;-71
2023/08/26 01:30:33;;;;;;;16.15;12.15;;;614.90;2432.00;;;;;;4992286;28;20522;-71
2023/08/26 01:33:04;;;;;;;21.52;13.02;;;614.90;2432.00;;;;;;4992238;28;20029;-73
2023/08/26 01:35:37;;;;;;;15.65;12.85;;;615.00;2432.00;;;;;;4992235;28;20113;-73
2023/08/26 01:38:04;;;;;;;19.25;12.00;;;615.00;2432.00;;;;;;4992037;28;20066;-72
2023/08/26 01:40:33;;;;;;;17.67;11.82;;;615.20;2432.00;;;;;;4992015;28;20029;-72
2023/08/26 01:43:00;;;;;;;15.73;12.00;;;615.20;2432.00;;;;;;4991669;28;20056;-73
2023/08/26 01:45:26;;;;;;;16.63;11.52;;;615.30;2432.00;;;;;;4992044;28;20030;-73
2023/08/26 01:47:51;;;;;;;18.67;12.80;;;615.20;2432.00;;;;;;4991819;28;20081;-70
2023/08/26 01:50:17;;;;;;;16.08;11.63;;;615.10;2432.00;;;;;;5022655;28;20041;-70
2023/08/26 01:52:43;;;;;;;15.27;12.18;;;615.00;2432.00;;;;;;5053193;28;20066;-71
2023/08/26 01:55:08;;;;;;;17.50;12.70;;;615.00;2432.00;;;;;;5053198;28;20027;-70
2023/08/26 01:57:34;;;;;;;18.83;13.32;;;615.20;2432.00;;;;;;5053275;28;20032;-70
2023/08/26 02:00:00;;;;;;;17.48;13.35;;;615.20;2432.00;;;;;;5052989;28;20079;-70
2023/08/26 02:02:25;;;;;;;15.15;12.02;;;615.20;2432.00;;;;;;5053199;28;20029;-70
2023/08/26 02:04:51;;;;;;;17.83;12.32;;;615.00;2432.00;;;;;;5052951;28;20040;-72
2023/08/26 02:07:17;;;;;;;18.95;12.82;;;615.10;2432.00;;;;;;5053269;28;20500;-72
2023/08/26 02:09:43;;;;;;;15.57;13.30;;;615.10;2432.00;;;;;;5052943;28;20104;-70
2023/08/26 02:12:08;;;;;;;18.23;13.68;;;615.00;2432.00;;;;;;5053129;28;20025;-70
2023/08/26 02:14:34;;;;;;;16.17;12.75;;;615.10;2432.00;;;;;;5052998;28;20021;-70
2023/08/26 02:17:00;;;;;;;14.40;11.98;;;615.00;2432.00;;;;;;5052764;28;20415;-70
2023/08/26 02:19:25;;;;;;;18.35;12.38;;;614.90;2432.00;;;;;;5052814;28;20393;-70
2023/08/26 02:21:52;;;;;;;19.05;13.75;;;614.90;2432.00;;;;;;5052799;28;20025;-70
2023/08/26 02:24:18;;;;;;;18.13;13.27;;;614.80;2432.00;;;;;;5052601;28;20025;-70
2023/08/26 02:26:43;;;;;;;20.83;14.10;;;614.80;2432.00;;;;;;5052801;28;20535;-73
2023/08/26 02:29:09;;;;;;;18.60;13.77;;;614.80;2432.00;;;;;;5052866;28;20554;-71
2023/08/26 02:31:35;;;;;;;16.55;12.85;;;614.80;2432.00;;;;;;5052707;28;20021;-70
2023/08/26 02:34:00;;;;;;;20.73;14.63;;;614.80;2432.00;;;;;;5052781;28;20466;-71
2023/08/26 02:36:26;;;;;;;16.92;13.50;;;614.70;2432.00;;;;;;5052637;28;20025;-71
2023/08/26 02:38:52;;;;;;;18.38;12.98;;;614.80;2432.00;;;;;;5052639;28;20025;-70
2023/08/26 02:41:17;;;;;;;21.23;14.77;;;614.90;2432.00;;;;;;5052672;28;20462;-70
2023/08/26 02:43:43;;;;;;;17.58;13.25;;;614.90;2432.00;;;;;;5052557;28;20044;-70
2023/08/26 02:46:09;;;;;;;25.98;14.00;;;614.90;2432.00;;;;;;5052802;28;20094;-71
2023/08/26 02:48:34;;;;;;;18.52;13.50;;;614.90;2432.00;;;;;;5052323;28;20051;-70
2023/08/26 02:51:01;;;;;;;15.82;12.85;;;614.90;2432.00;;;;;;5052743;28;20032;-69
2023/08/26 02:53:30;;;;;;;23.38;12.57;;;614.90;2432.00;;;;;;5052383;28;20491;-68
2023/08/26 02:55:56;;;;;;;21.13;14.00;;;615.00;2432.00;;;;;;5054096;28;20020;-70
2023/08/26 02:58:22;;;;;;;28.83;13.82;;;615.00;2432.00;;;;;;5056432;28;20029;-69
2023/08/26 03:00:49;;;;;;;20.45;14.32;;;615.00;2432.00;;;;;;5054243;28;20378;-71
2023/08/26 03:03:15;;;;;;;25.45;13.43;;;615.00;2432.00;;;;;;5056248;28;20078;-70
2023/08/26 03:05:40;;;;;;;28.48;14.55;;;614.90;2432.00;;;;;;5055566;28;20056;-72
2023/08/26 03:08:07;;;;;;;20.52;14.85;;;614.70;2432.00;;;;;;5055574;28;20098;-71
2023/08/26 03:10:33;;;;;;;24.45;14.73;;;614.60;2432.00;;;;;;5055611;28;20594;-72
2023/08/26 03:12:58;;;;;;;23.27;14.52;;;614.50;2432.00;;;;;;5055596;28;20029;-70
2023/08/26 03:15:28;;;;;;;22.35;15.35;;;614.50;2432.00;;;;;;5055455;28;20032;-70
2023/08/26 03:17:55;;;;;;;31.10;15.95;;;614.50;2432.00;;;;;;5055363;28;20021;-70
2023/08/26 03:20:21;;;;;;;28.40;17.15;;;614.40;2432.00;;;;;;5055141;28;20506;-74
2023/08/26 03:22:47;;;;;;;29.90;16.90;;;614.40;2432.00;;;;;;5055159;28;20029;-70
2023/08/26 03:25:12;;;;;;;28.95;17.30;;;614.40;2432.00;;;;;;5055375;28;20073;-71
2023/08/26 03:27:38;;;;;;;31.05;17.23;;;589.70;2432.00;;;;;;5055414;28;20377;-69
2023/08/26 03:30:05;;;;;;;29.92;18.33;;;589.70;2432.00;;;;;;5055224;28;20037;-71
2023/08/26 03:32:31;;;;;;;31.42;18.33;;;589.70;2432.00;;;;;;5055142;28;20024;-74
2023/08/26 03:34:56;;;;;;;28.67;18.30;;;589.70;2432.00;;;;;;5055187;28;20032;-71
2023/08/26 03:37:22;;;;;;;30.48;18.67;;;589.70;2432.00;;;;;;5058886;28;20016;-70
2023/08/26 03:39:48;;;;;;;26.90;17.13;;;589.70;2432.00;;;;;;5072041;28;20503;-70
2023/08/26 03:42:13;;;;;;;35.45;18.70;;;614.40;2432.00;;;;;;5072544;28;20480;-69
2023/08/26 03:44:39;;;;;;;31.38;19.45;;;614.40;2432.00;;;;;;5067934;28;20391;-71
2023/08/26 03:47:05;;;;;;;30.85;19.40;;;589.70;2432.00;;;;;;5065707;28;20024;-70
2023/08/26 03:49:30;;;;;;;31.02;19.13;;;589.70;2432.00;;;;;;5070198;28;20497;-70
2023/08/26 03:51:56;;;;;;;34.30;20.17;;;589.70;2432.00;;;;;;5069666;28;20049;-71
2023/08/26 03:54:22;;;;;;;30.05;19.48;;;589.70;2432.00;;;;;;5062563;28;20021;-71
2023/08/26 03:56:47;;;;;;;37.15;20.95;;;614.40;2432.00;;;;;;5074312;28;20381;-70
2023/08/26 03:59:13;;;;;;;32.00;21.63;;;589.70;2432.00;;;;;;5067985;28;20032;-71
2023/08/26 04:01:39;;;;;;;36.25;20.35;;;589.70;2432.00;;;;;;5063852;28;20152;-70
2023/08/26 04:04:05;;;;;;;35.30;21.45;;;589.70;2432.00;;;;;;5072088;28;20119;-70
2023/08/26 04:06:31;;;;;;;45.25;21.50;;;589.70;2432.00;;;;;;5065538;28;20415;-70
2023/08/26 04:08:57;;;;;;;41.03;22.13;;;589.70;2432.00;;;;;;5066676;28;20028;-71
2023/08/26 04:11:23;;;;;;;36.08;21.30;;;589.70;2432.00;;;;;;5063221;28;20021;-70
2023/08/26 04:13:49;;;;;;;38.08;21.10;;;589.60;2432.00;;;;;;5068829;28;20029;-72
2023/08/26 04:16:15;;;;;;;34.08;19.98;;;589.40;2432.00;;;;;;5065293;28;20049;-72
2023/08/26 04:18:43;;;;;;;37.05;20.92;;;589.50;2432.00;;;;;;5079829;28;20511;-72
2023/08/26 04:21:09;;;;;;;39.58;21.95;;;589.50;2432.00;;;;;;5063191;28;20483;-72
2023/08/26 04:23:35;;;;;;;30.10;20.33;;;589.50;2432.00;;;;;;5067479;28;20092;-70
2023/08/26 04:26:02;;;;;;;31.75;20.92;;;589.40;2432.00;;;;;;5065859;28;20054;-70
2023/08/26 04:28:29;;;;;;;34.28;23.60;;;589.50;2432.00;;;;;;5065123;28;20013;-70
2023/08/26 04:30:55;;;;;;;36.00;21.48;;;589.50;2432.00;;;;;;5070316;28;20063;-71
2023/08/26 04:33:21;;;;;;;31.13;21.77;;;589.60;2432.00;;;;;;5071890;28;20024;-71
2023/08/26 04:35:46;;;;;;;45.47;20.95;;;589.60;2432.00;;;;;;5066420;28;20100;-71
2023/08/26 04:38:15;;;;;;;32.90;22.00;;;589.50;2432.00;;;;;;5063602;28;20100;-72
2023/08/26 04:40:41;;;;;;;31.83;20.00;;;589.40;2432.00;;;;;;5069223;28;20112;-70
2023/08/26 04:43:10;;;;;;;42.35;22.60;;;589.30;2432.00;;;;;;5063746;28;20507;-71
2023/08/26 04:45:37;;;;;;;41.75;22.35;;;589.40;2432.00;;;;;;5066133;28;20066;-72
2023/08/26 04:48:04;;;;;;;31.13;20.30;;;589.40;2432.00;;;;;;5069280;28;20112;-72
2023/08/26 04:50:30;;;;;;;28.88;21.23;;;589.40;2432.00;;;;;;5062889;28;20025;-71
2023/08/26 04:52:56;;;;;;;32.05;21.50;;;589.60;2432.00;;;;;;5068871;28;20025;-71
2023/08/26 04:55:22;;;;;;;29.35;21.35;;;589.70;2432.00;;;;;;5062029;28;20036;-71
2023/08/26 04:57:47;;;;;;;35.28;21.25;;;614.40;2432.00;;;;;;5070852;28;20056;-73
2023/08/26 05:00:16;;;;;;;35.90;21.95;;;614.40;2432.00;;;;;;5069884;28;20020;-70
2023/08/26 05:02:42;;;;;;;41.30;23.65;;;614.50;2432.00;;;;;;5064498;28;20016;-73
2023/08/26 05:05:08;;;;;;;39.30;23.73;;;614.50;2432.00;;;;;;5068766;28;20107;-75
2023/08/26 05:07:34;;;;;;;32.75;22.05;;;614.60;2432.00;;;;;;5068155;28;20512;-71
2023/08/26 05:10:00;;;;;;;35.20;23.67;;;614.70;2432.00;;;;;;5064794;28;20113;-71
2023/08/26 05:12:26;;;;;;;33.05;22.52;;;614.90;2432.00;;;;;;5073199;28;20025;-74
2023/08/26 05:14:51;;;;;;;34.38;22.70;;;615.00;2432.00;;;;;;5067493;28;20036;-71
2023/08/26 05:17:17;;;;;;;28.88;22.35;;;615.10;2432.00;;;;;;5068951;28;20417;-73
2023/08/26 05:19:43;;;;;;;40.17;23.05;;;615.20;2432.00;;;;;;5059834;28;20053;-71
2023/08/26 05:22:09;;;;;;;31.77;20.80;;;615.20;2432.00;;;;;;5065527;28;20028;-73
2023/08/26 05:24:34;;;;;;;28.80;20.60;;;615.30;2432.00;;;;;;5067668;28;20035;-71
2023/08/26 05:27:00;;;;;;;36.28;21.73;;;640.00;2432.00;;;;;;5068858;28;20016;-75
2023/08/26 05:29:26;;;;;;;35.22;21.60;;;640.10;2432.00;;;;;;5068504;28;20024;-71
2023/08/26 05:31:51;;;;;;;31.25;20.73;;;640.10;2432.00;;;;;;5068234;28;20605;-72
2023/08/26 05:34:17;;;;;;;30.33;20.63;;;640.20;2432.00;;;;;;5063748;28;20107;-71
2023/08/26 05:36:43;;;;;;;31.90;20.25;;;640.50;2432.00;;;;;;5065676;28;20583;-73
2023/08/26 05:39:08;;;;;;;29.77;20.80;;;640.50;2432.00;;;;;;5069300;28;20035;-71
2023/08/26 05:41:34;;;;;;;26.95;19.85;;;640.50;2432.00;;;;;;5068030;28;20017;-72
2023/08/26 05:44:00;;;;;;;32.28;20.35;;;640.50;2432.00;;;;;;5070226;28;20556;-72
2023/08/26 05:46:25;;;;;;;32.33;20.75;;;640.70;2432.00;;;;;;5066841;28;20020;-73
2023/08/26 05:48:51;;;;;;;23.73;17.60;;;640.80;2432.00;;;;;;5065723;28;20120;-72
2023/08/26 05:51:17;;;;;;;25.13;17.75;;;640.80;2432.00;;;;;;5068370;28;20518;-74
2023/08/26 05:53:42;;;;;;;21.70;16.85;;;640.80;2432.00;;;;;;5065011;28;20047;-73
2023/08/26 05:56:08;;;;;;;21.55;15.85;;;665.70;2432.00;;;;;;5065722;28;20067;-72
2023/08/26 05:58:34;;;;;;;21.35;16.17;;;665.60;2432.00;;;;;;5071808;28;20102;-71
2023/08/26 06:00:59;;;;;;;23.85;16.15;;;665.60;2432.00;;;;;;5062693;28;20021;-73
2023/08/26 06:03:25;;;;;;;21.55;15.68;;;665.60;2432.00;;;;;;5072066;28;20032;-73
2023/08/26 06:05:51;;;;;;;21.27;16.13;;;665.70;2432.00;;;;;;5063999;28;20013;-73
2023/08/26 06:08:16;;;;;;;19.00;14.60;;;665.90;2432.00;;;;;;5071745;28;20469;-72
2023/08/26 06:10:42;;;;;;;23.15;15.88;;;666.00;2432.00;;;;;;5067850;28;20540;-71
2023/08/26 06:13:08;;;;;;;22.20;16.15;;;666.10;2432.00;;;;;;5059647;28;20028;-72
2023/08/26 06:15:33;;;;;;;18.00;15.85;;;666.20;2432.00;;;;;;5066470;28;20021;-72
2023/08/26 06:17:59;;;;;;;20.90;16.17;;;666.20;2432.00;;;;;;5067605;28;20393;-71
2023/08/26 06:20:26;;;;;;;22.52;14.88;;;666.50;2432.00;;;;;;5068709;28;20485;-72
2023/08/26 06:22:52;;;;;;;22.58;15.52;;;691.20;2432.00;;;;;;5068925;28;20086;-72
2023/08/26 06:25:18;;;;;;;22.38;15.70;;;691.20;2432.00;;;;;;5067494;28;20016;-72
2023/08/26 06:27:43;;;;;;;17.73;13.68;;;691.40;2432.00;;;;;;5061066;28;20046;-72
2023/08/26 06:30:09;;;;;;;18.85;14.48;;;691.60;2432.00;;;;;;5071979;28;20437;-73
2023/08/26 06:32:35;;;;;;;19.73;14.15;;;691.70;2432.00;;;;;;5069416;28;20067;-71
2023/08/26 06:35:01;;;;;;;24.20;14.38;;;692.00;2432.00;;;;;;5069033;28;20044;-72
2023/08/26 06:37:27;;;;;;;19.48;15.52;;;692.00;2432.00;;;;;;5069886;28;20029;-73
2023/08/26 06:39:53;;;;;;;20.85;13.98;;;716.80;2432.00;;;;;;5067064;28;20072;-71
2023/08/26 06:42:18;;;;;;;18.45;13.02;;;717.10;2432.00;;;;;;5074457;28;20021;-72
2023/08/26 06:44:44;;;;;;;21.75;13.35;;;717.20;2432.00;;;;;;5066211;28;20024;-72
2023/08/26 06:47:10;;;;;;;18.27;12.65;;;717.40;2432.00;;;;;;5072056;28;20032;-72
2023/08/26 06:49:36;;;;;;;22.25;13.65;;;717.40;2432.00;;;;;;5066643;28;20428;-70
2023/08/26 06:52:02;;;;;;;17.33;13.07;;;717.60;2432.00;;;;;;5068612;28;20028;-72
2023/08/26 06:54:28;;;;;;;16.58;12.70;;;717.70;2432.00;;;;;;5068849;28;20059;-72
2023/08/26 06:56:54;;;;;;;15.73;12.70;;;742.40;2432.00;;;;;;5071792;28;20029;-70
2023/08/26 06:59:19;;;;;;;25.17;11.65;;;742.40;2432.00;;;;;;5065439;28;20025;-74
2023/08/26 07:01:45;;;;;;;17.98;12.75;;;742.60;2432.00;;;;;;5062939;28;20480;-71
2023/08/26 07:04:12;;;;;;;22.35;13.18;;;742.60;2432.00;;;;;;5069240;28;20039;-71
2023/08/26 07:06:38;;;;;;;17.35;12.65;;;743.00;2432.00;;;;;;5071110;28;20021;-71
2023/08/26 07:09:05;;;;;;;17.08;12.90;;;743.00;2432.00;;;;;;5066226;28;20028;-71
2023/08/26 07:11:31;;;;;;;15.07;12.50;;;743.10;2432.00;;;;;;5072033;28;20017;-71
2023/08/26 07:13:57;;;;;;;14.93;11.85;;;743.30;2432.00;;;;;;5071848;28;20369;-73
2023/08/26 07:16:25;;;;;;;18.92;12.05;;;768.20;2432.00;;;;;;5074130;28;20070;-71
2023/08/26 07:18:51;;;;;;;16.10;11.88;;;768.40;2432.00;;;;;;5068323;28;20149;-71
2023/08/26 07:21:16;;;;;;;17.67;11.60;;;768.60;2432.00;;;;;;5073465;28;20025;-71
2023/08/26 07:23:42;;;;;;;15.00;12.50;;;768.90;2432.00;;;;;;5069046;28;20060;-71
2023/08/26 07:26:08;;;;;;;16.88;12.50;;;768.90;2432.00;;;;;;5068186;28;20020;-72
2023/08/26 07:28:33;;;;;;;28.58;14.52;;;793.80;2432.00;;;;;;5064755;28;20039;-72
2023/08/26 07:31:04;;;;;;;21.75;14.07;;;793.90;2432.00;;;;;;5070481;28;20148;-71
2023/08/26 07:33:30;;;;;;;26.95;12.77;;;794.00;2432.00;;;;;;5063176;28;20108;-72
2023/08/26 07:36:07;;;;;;;19.25;12.32;;;794.40;2432.00;;;;;;5072696;28;20031;-70
2023/08/26 07:38:34;;;;;;;17.45;12.15;;;794.50;2432.00;;;;;;5066815;28;20493;-71
2023/08/26 07:41:00;;;;;;;20.05;11.90;;;819.30;2406.40;;;;;;5070903;28;20032;-73
2023/08/26 07:43:26;;;;;;;16.30;10.88;;;819.50;2304.00;;;;;;5069325;28;20041;-71
2023/08/26 07:45:51;;;;;;;17.63;11.82;;;819.70;2304.00;;;;;;5068328;28;20055;-72
2023/08/26 07:48:17;;;;;;;20.65;11.55;;;819.80;2304.00;;;;;;5070230;28;20497;-70
2023/08/26 07:50:43;;;;;;;23.55;11.07;;;819.90;2278.40;;;;;;5074621;28;20031;-73
2023/08/26 07:53:09;;;;;;;15.60;12.32;;;820.10;2201.60;;;;;;5069845;28;20060;-71
2023/08/26 07:55:34;;;;;;;12.63;10.68;;;844.80;2201.60;;;;;;5066354;28;20424;-71
2023/08/26 07:58:00;;;;;;;17.48;11.82;;;845.30;2124.80;;;;;;5072438;28;20025;-72
2023/08/26 08:00:27;;;;;;;14.65;11.32;;;845.50;2176.00;;;;;;5071426;28;20099;-71
2023/08/26 08:02:56;;;;;;;12.40;10.90;;;845.60;2099.20;;;;;;5062889;28;20126;-71
2023/08/26 08:05:21;;;;;;;14.48;11.30;;;845.70;2073.60;;;;;;5069730;28;20100;-72
2023/08/26 08:07:47;;;;;;;13.38;11.00;;;845.70;2048.00;;;;;;5070757;28;20113;-72
2023/08/26 08:10:13;;;;;;;16.45;10.93;;;845.70;2022.40;;;;;;5072188;28;20024;-71
2023/08/26 08:12:38;;;;;;;18.40;11.95;;;870.60;2048.00;;;;;;5065357;28;20024;-71
2023/08/26 08:15:05;;;;;;;16.90;11.25;;;870.50;2022.40;;;;;;5069824;28;20489;-72
2023/08/26 08:17:31;;;;;;;16.67;10.93;;;870.80;1971.20;;;;;;5065755;28;20366;-71
2023/08/26 08:19:57;;;;;;;13.52;10.10;;;871.00;1868.80;;;;;;5072731;28;20053;-73
2023/08/26 08:22:43;;;;;;;14.32;10.35;;;871.10;1920.00;;;;;;5071022;28;20025;-72
2023/08/26 08:25:10;;;;;;;10.88;8.95;;;896.10;1945.60;;;;;;5066897;28;20053;-71
2023/08/26 08:27:37;;;;;;;11.23;9.35;;;896.30;1766.40;;;;;;5065593;28;20432;-71
2023/08/26 08:30:04;;;;;;;11.38;8.88;;;896.30;1740.80;;;;;;5069674;28;20020;-72
2023/08/26 08:32:30;;;;;;;12.65;9.90;;;896.40;1766.40;;;;;;5069129;28;20272;-71
2023/08/26 08:34:55;;;;;;;15.80;8.25;;;896.60;1689.60;;;;;;5068749;28;20465;-73
2023/08/26 08:37:21;;;;;;;12.30;8.95;;;896.80;1664.00;;;;;;5070904;28;20052;-73
2023/08/26 08:39:47;;;;;;;15.77;9.55;;;921.60;1715.20;;;;;;5069152;28;20085;-72
2023/08/26 08:42:17;;;;;;;9.38;8.38;;;921.70;1664.00;;;;;;5070155;28;20024;-73
2023/08/26 08:44:44;;;;;;;9.35;8.27;;;896.90;1664.00;;;;;;5064696;28;20033;-73
2023/08/26 08:47:10;;;;;;;12.50;7.78;;;921.80;1664.00;;;;;;5072380;28;20065;-71
2023/08/26 08:49:37;;;;;;;15.07;9.15;;;921.70;1561.60;;;;;;5066689;28;20115;-70
2023/08/26 08:52:07;;;;;;;11.13;8.00;;;921.60;1587.20;;;;;;5066171;28;20418;-72
2023/08/26 08:54:34;;;;;;;13.50;8.93;;;896.90;1536.00;;;;;;5072236;28;20497;-71
2023/08/26 08:57:04;;;;;;;9.77;8.13;;;922.00;1561.60;;;;;;5064875;28;20126;-72
2023/08/26 08:59:34;;;;;;;10.90;7.85;;;922.00;1536.00;;;;;;5071694;28;20028;-72
2023/08/26 09:02:00;;;;;;;8.65;7.75;;;921.60;1510.40;;;;;;5068841;28;20480;-72
2023/08/26 09:04:26;;;;;;;14.30;9.75;;;921.80;1510.40;;;;;;5068303;28;20091;-73
2023/08/26 09:06:52;;;;;;;11.25;8.43;;;922.20;1510.40;;;;;;5073029;28;20477;-71
2023/08/26 09:09:20;;;;;;;14.65;8.80;;;922.20;1510.40;;;;;;5063950;28;20124;-72
2023/08/26 09:11:47;;;;;;;11.98;8.73;;;922.20;1536.00;;;;;;5081345;28;20036;-71
2023/08/26 09:14:13;;;;;;;11.25;8.65;;;922.40;1510.40;;;;;;5064182;28;20040;-71
2023/08/26 09:16:41;;;;;;;12.43;7.75;;;947.20;1484.80;;;;;;5068855;28;20422;-72
2023/08/26 09:19:16;;;;;;;11.02;8.82;;;947.20;1459.20;;;;;;5067914;28;20045;-71
2023/08/26 09:21:45;;;;;;;10.50;9.35;;;947.40;1484.80;;;;;;5067034;28;20033;-72
2023/08/26 09:24:14;;;;;;;16.00;10.07;;;947.80;1459.20;;;;;;5066078;28;20036;-73
2023/08/26 09:26:43;;;;;;;14.90;8.75;;;947.80;1484.80;;;;;;5066658;28;20497;-72
2023/08/26 09:29:20;;;;;;;13.70;8.80;;;947.80;1459.20;;;;;;5064890;28;20044;-71
2023/08/26 09:31:50;;;;;;;14.75;9.93;;;947.70;1459.20;;;;;;5064041;28;20036;-71
2023/08/26 09:34:32;;;;;;;10.35;8.95;;;947.90;1408.00;;;;;;5063922;28;20461;-72
2023/08/26 09:36:59;;;;;;;13.68;9.02;;;947.90;1433.60;;;;;;5072561;28;20078;-71
2023/08/26 09:39:25;;;;;;;12.68;7.93;;;947.90;1382.40;;;;;;5069896;28;20021;-71
2023/08/26 09:41:54;;;;;;;11.02;8.07;;;947.80;1356.80;;;;;;5064904;28;20100;-71
2023/08/26 09:44:21;;;;;;;11.77;8.02;;;947.80;1356.80;;;;;;5068247;28;20044;-74
2023/08/26 09:46:47;;;;;;;11.13;7.93;;;947.40;1356.80;;;;;;5065166;28;20081;-71
2023/08/26 09:49:14;;;;;;;17.27;7.88;;;947.80;1356.80;;;;;;5063669;28;20036;-71
2023/08/26 09:51:48;;;;;;;12.98;8.52;;;973.10;1331.20;;;;;;5064863;28;20060;-71
2023/08/26 09:54:18;;;;;;;10.40;8.02;;;973.60;1305.60;;;;;;5070020;28;20503;-72
2023/08/26 09:56:48;;;;;;;9.35;7.78;;;973.60;1305.60;;;;;;5063482;28;20456;-74
2023/08/26 09:59:15;;;;;;;14.60;8.27;;;998.90;1280.00;;;;;;5065645;28;20380;-71
2023/08/26 10:01:42;;;;;;;11.85;7.93;;;998.70;1356.80;;;;;;5065578;28;20021;-72
2023/08/26 10:04:09;;;;;;;10.75;8.20;;;998.80;1280.00;;;;;;5065483;28;20037;-72
2023/08/26 10:06:52;;;;;;;9.27;6.57;;;998.40;1305.60;;;;;;5060605;28;20083;-71
2023/08/26 10:09:30;;;;;;;11.32;7.68;;;998.90;1228.80;;;;;;5062314;28;20078;-71
2023/08/26 10:12:02;;;;;;;11.30;7.35;;;1024.10;1228.80;;;;;;5069834;28;20081;-72
2023/08/26 10:14:30;;;;;;;9.85;7.68;;;1024.10;1177.60;;;;;;5063243;28;20377;-72
2023/08/26 10:16:59;;;;;;;8.80;7.90;;;1024.20;1228.80;;;;;;5068072;28;20024;-73
2023/08/26 10:19:26;;;;;;;11.68;7.40;;;1024.50;1203.20;;;;;;5062822;28;20098;-72
2023/08/26 10:21:53;;;;;;;9.18;7.57;;;1024.20;1203.20;;;;;;5071989;28;20021;-72
2023/08/26 10:24:20;;;;;;;12.15;6.85;;;1024.30;1203.20;;;;;;5071833;28;20036;-73
2023/08/26 10:26:46;;;;;;;11.65;6.45;;;1024.00;1177.60;;;;;;5067743;28;20487;-71
2023/08/26 10:29:13;;;;;;;6.60;5.70;;;1024.10;1152.00;;;;;;5071793;28;20031;-72
2023/08/26 10:31:40;;;;;;;7.97;6.70;;;1024.50;1152.00;;;;;;5071639;28;20013;-71
2023/08/26 10:34:08;;;;;;;11.20;7.03;;;1024.70;1152.00;;;;;;5063579;28;20028;-73
2023/08/26 10:36:35;;;;;;;13.68;6.00;;;1024.70;1126.40;;;;;;5066371;28;20021;-71
2023/08/26 10:39:02;;;;;;;7.97;5.80;;;1024.60;1152.00;;;;;;5069114;28;20016;-72
2023/08/26 10:41:28;;;;;;;13.98;7.70;;;1049.70;1100.80;;;;;;5064095;28;20079;-71
2023/08/26 10:43:55;;;;;;;7.57;6.75;;;1049.60;1126.40;;;;;;5071974;28;20032;-73
2023/08/26 10:46:32;;;;;;;10.52;7.35;;;1024.90;1100.80;;;;;;5067256;28;20028;-73
2023/08/26 10:48:59;;;;;;;7.93;7.00;;;1024.60;1100.80;;;;;;5058984;28;20117;-72
2023/08/26 10:51:25;;;;;;;8.00;6.97;;;1024.60;1100.80;;;;;;5072805;28;20125;-71
2023/08/26 10:53:51;;;;;;;9.95;6.25;;;1024.50;1100.80;;;;;;5067483;28;20047;-73
2023/08/26 10:56:21;;;;;;;11.15;6.82;;;1024.60;1049.60;;;;;;5060061;28;20029;-72
2023/08/26 10:58:48;;;;;;;8.90;6.50;;;1049.60;1075.20;;;;;;5068339;28;20461;-70
2023/08/26 11:01:17;;;;;;;8.50;6.30;;;1050.10;1100.80;;;;;;5067312;28;20021;-72
2023/08/26 11:03:45;;;;;;;9.70;6.65;;;1024.60;1049.60;;;;;;5058919;28;20033;-75
2023/08/26 11:06:18;;;;;;;10.98;6.18;;;1024.70;1126.40;;;;;;5062532;28;20024;-71
2023/08/26 11:08:52;;;;;;;8.30;5.80;;;1024.50;1075.20;;;;;;5067099;28;20049;-72
2023/08/26 11:11:18;;;;;;;8.48;6.03;;;1024.50;1049.60;;;;;;5068372;28;20196;-71
2023/08/26 11:13:46;;;;;;;7.40;6.28;;;1024.70;1075.20;;;;;;5071800;28;20535;-72
2023/08/26 11:16:13;;;;;;;9.43;6.40;;;1024.40;1126.40;;;;;;5067954;28;20028;-72
2023/08/26 11:18:40;;;;;;;7.00;5.60;;;1024.20;1126.40;;;;;;5070691;28;20059;-72
2023/08/26 11:21:07;;;;;;;9.95;7.13;;;1049.60;1100.80;;;;;;5066495;28;20056;-73
2023/08/26 11:23:33;;;;;;;11.27;7.35;;;1049.70;1126.40;;;;;;5063761;28;20032;-72
2023/08/26 11:25:59;;;;;;;15.43;7.95;;;1049.90;1075.20;;;;;;5070820;28;20023;-72
2023/08/26 11:28:27;;;;;;;9.15;6.88;;;1024.60;1100.80;;;;;;5066269;28;20376;-72
2023/08/26 11:30:53;;;;;;;9.80;6.35;;;1024.00;1100.80;;;;;;5069006;28;20107;-72
2023/08/26 11:33:21;;;;;;;8.82;6.88;;;999.20;1100.80;;;;;;5072763;28;20056;-72
2023/08/26 11:35:48;;;;;;;12.35;7.22;;;998.80;1100.80;;;;;;5070483;28;20048;-72
2023/08/26 11:38:16;;;;;;;10.43;6.90;;;998.60;1126.40;;;;;;5075152;28;20020;-72
2023/08/26 11:40:42;;;;;;;7.93;6.50;;;998.80;1126.40;;;;;;5073526;28;20027;-72
2023/08/26 11:43:12;;;;;;;10.20;6.93;;;999.20;1100.80;;;;;;5070389;28;20396;-71
2023/08/26 11:45:42;;;;;;;9.82;7.28;;;998.80;1126.40;;;;;;5073185;28;20469;-72
2023/08/26 11:48:12;;;;;;;10.25;7.07;;;998.70;1126.40;;;;;;5065060;28;20074;-73
2023/08/26 11:50:39;;;;;;;11.38;6.70;;;998.80;1152.00;;;;;;5070299;28;20480;-72
2023/08/26 11:53:05;;;;;;;9.05;6.15;;;998.60;1126.40;;;;;;5065911;28;20021;-72
2023/08/26 11:55:32;;;;;;;11.60;6.32;;;998.60;1126.40;;;;;;5068497;28;20025;-72
2023/08/26 11:57:59;;;;;;;12.13;6.35;;;998.60;1100.80;;;;;;5070525;28;20431;-72
2023/08/26 12:00:25;;;;;;;11.10;6.32;;;998.70;1100.80;;;;;;5056364;28;20444;-72